PDT,Max TemperatureF,Mean TemperatureF,Min TemperatureF,Max Dew PointF,MeanDew PointF,Min DewpointF,Max Humidity, Mean Humidity, Min Humidity, Max Sea Level PressureIn, Mean Sea Level PressureIn, Min Sea Level PressureIn, Max VisibilityMiles, Mean VisibilityMiles, Min VisibilityMiles, Max Wind SpeedMPH, Mean Wind SpeedMPH, Max Gust SpeedMPH,PrecipitationIn, CloudCover, Events, WindDirDegrees
2013-8-1,106,89,71,56,43,22,57,32,6,29.85,29.79,29.72,10,10,10,23,4,28,0.00,0,,301
2013-8-2,105,89,72,53,44,30,46,27,8,29.83,29.78,29.72,10,10,10,15,3,22,0.00,1,,318
2013-8-3,106,90,73,58,45,25,57,32,6,29.88,29.82,29.76,10,10,10,10,3,15,0.00,1,,5
2013-8-4,109,92,75,58,47,31,54,31,7,29.88,29.82,29.75,10,10,10,18,3,23,0.00,0,,304
2013-8-5,105,90,75,53,43,33,42,26,9,29.88,29.83,29.77,10,10,10,16,4,18,0.00,1,,37
2013-8-6,106,90,74,50,41,30,41,25,8,29.91,29.85,29.78,10,10,10,9,3,13,0.00,0,,26
2013-8-7,106,89,72,49,31,21,41,23,5,29.92,29.84,29.79,10,6,0,26,4,35,0.00,4,,324
2013-8-8,105,89,73,49,37,22,41,24,6,29.85,29.80,29.74,10,7,3,26,5,32,0.00,1,,327
2013-8-9,103,87,71,48,36,22,41,24,6,29.81,29.78,29.74,10,10,7,22,5,26,0.00,0,,305
2013-8-10,102,87,71,47,40,26,38,23,7,29.88,29.83,29.79,10,10,10,20,3,26,0.00,0,,319
2013-8-11,103,87,71,53,43,23,49,28,6,29.88,29.82,29.74,10,10,10,12,2,17,0.00,0,,337
2013-8-12,107,90,73,57,46,31,54,31,7,29.85,29.80,29.73,10,10,10,16,4,23,0.00,0,,295
2013-8-13,105,91,76,57,48,35,48,29,10,29.90,29.82,29.76,10,10,10,14,4,17,0.00,0,,105
2013-8-14,109,94,79,57,46,31,34,21,7,29.89,29.81,29.72,10,10,10,14,7,22,0.00,0,,42
2013-8-15,108,94,79,57,48,43,48,30,12,29.88,29.81,29.74,10,10,10,13,5,16,0.00,0,,61
2013-8-16,114,98,82,56,51,47,40,26,12,29.84,29.80,29.73,10,10,10,16,3,23,0.00,0,,310
2013-8-17,111,97,83,55,52,50,37,26,14,29.86,29.77,29.67,10,10,10,9,4,13,0.00,0,,85
2013-8-18,109,98,86,58,54,50,31,25,18,29.83,29.77,29.69,10,10,10,15,5,20,0.00,1,,16
2013-8-19,106,96,86,60,56,51,37,28,19,29.86,29.81,29.74,10,10,10,14,5,20,0.00,3,,68
2013-8-20,111,97,82,60,51,35,43,28,12,29.82,29.76,29.69,10,10,10,14,4,20,0.00,0,,320
2013-8-21,110,96,82,52,46,41,32,21,10,29.83,29.78,29.72,10,10,10,14,5,32,0.00,0,,133
2013-8-22,103,95,86,69,56,44,33,27,20,29.86,29.79,29.69,10,9,3,10,4,31,0.00,2,,96
2013-8-23,102,94,86,65,56,47,36,30,23,29.82,29.76,29.67,10,10,7,16,6,21,0.00,3,,319
2013-8-24,98,89,80,73,61,38,59,39,18,29.88,29.81,29.73,10,10,9,21,6,26,0.01,2,Rain,117
2013-8-25,93,85,76,74,68,66,76,60,44,29.95,29.91,29.84,10,10,5,22,4,25,0.06,2,Rain,86
2013-8-26,85,81,76,74,70,67,88,74,59,29.99,29.92,29.84,10,9,5,9,3,12,0.04,4,Rain,78
2013-8-27,100,88,75,70,65,60,74,53,31,29.85,29.78,29.70,10,10,10,12,4,16,0.00,1,,358
2013-8-28,107,95,83,64,60,57,47,34,21,29.84,29.76,29.70,10,10,10,18,6,24,0.00,1,,294
2013-8-29,98,92,85,73,72,68,70,55,40,29.99,29.93,29.88,10,10,8,18,7,23,0.00,3,,105
2013-8-30,97,90,83,77,73,69,85,64,43,30.01,29.95,29.89,10,10,10,12,6,16,0.00,4,,94
2013-8-31,104,94,84,72,68,64,65,47,29,29.92,29.85,29.77,10,10,10,9,4,15,0.00,2,,332